createdAt,value
2022-11-30T00:01:24.685Z,98048.13
2022-11-30T00:03:56.577Z,98042.22
2022-11-30T00:06:24.889Z,98034.47
2022-11-30T00:08:57.625Z,98038.72
2022-11-30T00:11:28.524Z,98037.88
2022-11-30T00:13:55.596Z,98030.22
2022-11-30T00:16:22.694Z,98032.97
2022-11-30T00:18:50.024Z,98028.66
2022-11-30T00:21:20.693Z,98030.66
2022-11-30T00:23:48.716Z,98033.22
2022-11-30T00:26:19.093Z,98033.44
2022-11-30T00:28:46.654Z,98035.38
2022-11-30T00:31:16.765Z,98032.03
2022-11-30T00:33:44.381Z,98025.31
2022-11-30T00:36:19.001Z,98035.66
2022-11-30T00:38:46.660Z,98033.03
2022-11-30T00:41:14.871Z,98039.69
2022-11-30T00:43:41.805Z,98041.44
2022-11-30T00:46:09.404Z,98044.03
2022-11-30T00:48:40.332Z,98045.69
2022-11-30T00:51:10.014Z,98045.69
2022-11-30T00:53:37.379Z,98049.19
2022-11-30T00:56:04.847Z,98056.00
2022-11-30T00:58:31.718Z,98051.69
2022-11-30T01:00:58.952Z,98044.84
2022-11-30T01:03:25.983Z,98050.00
2022-11-30T01:05:52.869Z,98049.19
2022-11-30T01:08:19.890Z,98055.16
2022-11-30T01:10:49.441Z,98047.59
2022-11-30T01:13:16.388Z,98059.59
2022-11-30T01:15:44.326Z,98064.75
2022-11-30T01:18:11.741Z,98064.75
2022-11-30T01:20:44.513Z,98062.16
2022-11-30T01:23:11.692Z,98064.75
2022-11-30T01:25:39.883Z,98063.81
2022-11-30T01:28:09.138Z,98062.06
2022-11-30T01:30:36.121Z,98063.06
2022-11-30T01:33:06.740Z,98062.16
2022-11-30T01:35:33.526Z,98055.16
2022-11-30T01:38:00.357Z,98064.66
2022-11-30T01:40:27.389Z,98068.91
2022-11-30T01:42:54.168Z,98067.31
2022-11-30T01:45:21.029Z,98073.31
2022-11-30T01:47:53.479Z,98068.22
2022-11-30T01:50:35.026Z,98073.31
2022-11-30T01:53:03.581Z,98068.97
2022-11-30T01:55:39.577Z,98065.66
2022-11-30T01:58:16.681Z,98068.38
2022-11-30T02:00:47.798Z,98068.44
2022-11-30T02:03:39.650Z,98065.88
2022-11-30T02:06:08.228Z,98078.00
2022-11-30T02:08:35.161Z,98079.09
2022-11-30T02:11:07.826Z,98085.00
2022-11-30T02:14:12.258Z,98069.59
2022-11-30T02:16:59.760Z,98077.34
2022-11-30T02:20:00.691Z,98087.75
2022-11-30T02:23:20.904Z,98083.63
2022-11-30T02:26:05.149Z,98085.38
2022-11-30T02:29:14.116Z,98088.03
2022-11-30T02:32:17.583Z,98083.88
2022-11-30T02:34:47.747Z,98082.13
2022-11-30T02:37:16.854Z,98082.97
2022-11-30T02:39:44.263Z,98085.53
2022-11-30T02:42:15.803Z,98087.28
2022-11-30T02:44:52.213Z,98091.53
2022-11-30T02:47:36.471Z,98090.69
2022-11-30T02:50:17.312Z,98085.53
2022-11-30T02:52:45.738Z,98085.47
2022-11-30T02:55:18.366Z,98082.88
2022-11-30T02:57:45.450Z,98084.53
2022-11-30T03:00:14.681Z,98078.47
2022-11-30T03:02:42.506Z,98080.22
2022-11-30T03:05:10.174Z,98082.97
2022-11-30T03:07:37.546Z,98093.28
2022-11-30T03:10:06.630Z,98083.03
2022-11-30T03:12:33.552Z,98094.19
2022-11-30T03:15:00.422Z,98093.34
2022-11-30T03:17:27.774Z,98089.88
2022-11-30T03:19:54.695Z,98089.13
2022-11-30T03:22:21.609Z,98090.78
2022-11-30T03:24:56.141Z,98092.53
2022-11-30T03:27:23.047Z,98095.19
2022-11-30T03:29:49.890Z,98097.84
2022-11-30T03:32:16.781Z,98095.34
2022-11-30T03:34:43.570Z,98095.34
2022-11-30T03:37:10.316Z,98103.09
2022-11-30T03:39:37.172Z,98093.69
2022-11-30T03:42:04.308Z,98099.75
2022-11-30T03:44:31.069Z,98090.19
2022-11-30T03:46:58.133Z,98091.03
2022-11-30T03:49:29.152Z,98091.78
2022-11-30T03:51:59.916Z,98091.84
2022-11-30T03:54:34.709Z,98092.78
2022-11-30T03:57:01.587Z,98099.59
2022-11-30T03:59:28.338Z,98093.69
2022-11-30T04:01:55.218Z,98092.06
2022-11-30T04:04:21.955Z,98086.16
2022-11-30T04:06:48.710Z,98099.06
2022-11-30T04:09:15.407Z,98100.88
2022-11-30T04:11:42.219Z,98099.28
2022-11-30T04:14:09.976Z,98097.63
2022-11-30T04:16:36.738Z,98094.31
2022-11-30T04:19:03.535Z,98092.75
2022-11-30T04:21:31.028Z,98093.59
2022-11-30T04:23:57.938Z,98097.78
2022-11-30T04:26:24.726Z,98097.78
2022-11-30T04:28:51.529Z,98078.13
2022-11-30T04:31:18.352Z,98100.56
2022-11-30T04:33:45.176Z,98094.75
2022-11-30T04:36:20.566Z,98107.72
2022-11-30T04:38:48.085Z,98112.13
2022-11-30T04:41:15.243Z,98105.97
2022-11-30T04:43:42.008Z,98108.47
2022-11-30T04:46:09.027Z,98107.56
2022-11-30T04:48:35.831Z,98107.63
2022-11-30T04:51:08.351Z,98105.06
2022-11-30T04:53:37.701Z,98099.00
2022-11-30T04:56:11.149Z,98106.81
2022-11-30T04:58:39.297Z,98095.75
2022-11-30T05:01:06.684Z,98101.88
2022-11-30T05:03:33.484Z,98102.00
2022-11-30T05:06:00.189Z,98110.66
2022-11-30T05:08:26.984Z,98123.53
2022-11-30T05:10:55.187Z,98122.63
2022-11-30T05:13:24.101Z,98129.53
2022-11-30T05:15:51.009Z,98120.22
2022-11-30T05:18:17.836Z,98121.94
2022-11-30T05:20:50.613Z,98116.88
2022-11-30T05:23:18.325Z,98122.09
2022-11-30T05:25:46.201Z,98124.75
2022-11-30T05:28:13.878Z,98115.44
2022-11-30T05:30:42.558Z,98112.16
2022-11-30T05:33:09.557Z,98108.81
2022-11-30T05:35:37.000Z,98114.72
2022-11-30T05:38:04.625Z,98120.72
2022-11-30T05:40:34.398Z,98118.22
2022-11-30T05:43:03.418Z,98123.38
2022-11-30T05:45:31.085Z,98121.63
2022-11-30T05:47:57.917Z,98137.00
2022-11-30T05:50:24.730Z,98127.63
2022-11-30T05:52:56.444Z,98137.09
2022-11-30T05:55:29.572Z,98128.44
2022-11-30T05:57:56.458Z,98133.69
2022-11-30T06:00:23.256Z,98130.34
2022-11-30T06:02:57.332Z,98145.06
2022-11-30T06:05:25.349Z,98135.66
2022-11-30T06:07:52.190Z,98136.50
2022-11-30T06:10:20.029Z,98134.66
2022-11-30T06:12:48.498Z,98138.00
2022-11-30T06:15:15.289Z,98140.50
2022-11-30T06:17:42.078Z,98133.69
2022-11-30T06:20:09.537Z,98140.50
2022-11-30T06:22:36.349Z,98133.59
2022-11-30T06:25:04.520Z,98131.84
2022-11-30T06:27:31.990Z,98139.00
2022-11-30T06:29:58.918Z,98140.81
2022-11-30T06:32:25.717Z,98135.72
2022-11-30T06:34:52.441Z,98140.06
2022-11-30T06:37:19.249Z,98139.06
2022-11-30T06:42:34.063Z,98128.69
2022-11-30T06:45:00.822Z,98136.41
2022-11-30T06:47:28.136Z,98130.34
2022-11-30T06:49:55.003Z,98130.34
2022-11-30T06:55:04.996Z,98143.22
2022-11-30T06:57:39.827Z,98144.81
2022-11-30T07:00:08.405Z,98153.31
2022-11-30T07:02:36.135Z,98160.13
2022-11-30T07:05:06.756Z,98159.28
2022-11-30T07:07:34.154Z,98157.50
2022-11-30T07:10:00.964Z,98161.75
2022-11-30T07:12:27.816Z,98163.25
2022-11-30T07:14:57.319Z,98159.69
2022-11-30T07:17:24.132Z,98164.84
2022-11-30T07:19:50.849Z,98166.34
2022-11-30T07:25:21.579Z,98174.78
2022-11-30T07:27:48.295Z,98173.13
2022-11-30T07:30:15.296Z,98170.56
2022-11-30T07:32:42.024Z,98173.88
2022-11-30T07:35:08.937Z,98170.25
2022-11-30T07:37:35.640Z,98170.09
2022-11-30T07:40:02.559Z,98171.00
2022-11-30T07:42:29.336Z,98169.19
2022-11-30T07:44:58.890Z,98171.75
2022-11-30T07:47:26.004Z,98182.13
2022-11-30T07:49:52.696Z,98185.72
2022-11-30T07:52:19.488Z,98188.44
2022-11-30T07:54:46.876Z,98178.22
2022-11-30T07:57:13.916Z,98181.53
2022-11-30T07:59:40.629Z,98174.63
2022-11-30T08:02:07.431Z,98179.63
2022-11-30T08:04:34.245Z,98167.50
2022-11-30T08:07:01.000Z,98166.41
2022-11-30T08:09:28.237Z,98170.47
2022-11-30T08:11:55.010Z,98179.28
2022-11-30T08:14:21.735Z,98181.09
2022-11-30T08:16:48.958Z,98179.50
2022-11-30T08:19:16.905Z,98182.78
2022-11-30T08:21:43.685Z,98186.19
2022-11-30T08:24:13.585Z,98186.09
2022-11-30T08:26:40.393Z,98190.44
2022-11-30T08:29:07.129Z,98192.94
2022-11-30T08:31:36.303Z,98192.09
2022-11-30T08:34:12.858Z,98194.66
2022-11-30T08:36:41.039Z,98196.25
2022-11-30T08:39:10.736Z,98198.59
2022-11-30T08:41:39.036Z,98203.72
2022-11-30T08:44:06.273Z,98201.19
2022-11-30T08:49:22.919Z,98204.53
2022-11-30T08:54:42.276Z,98220.53
2022-11-30T08:57:09.134Z,98218.94
2022-11-30T08:59:36.062Z,98225.97
2022-11-30T09:02:03.554Z,98238.91
2022-11-30T09:04:30.984Z,98239.06
2022-11-30T09:06:59.920Z,98247.72
2022-11-30T09:12:08.716Z,98244.38
2022-11-30T09:14:35.674Z,98251.81
2022-11-30T09:17:02.590Z,98244.00
2022-11-30T09:19:29.417Z,98245.56
2022-11-30T09:21:56.195Z,98254.78
2022-11-30T09:24:22.957Z,98246.00
2022-11-30T09:26:49.889Z,98244.41
2022-11-30T09:29:16.649Z,98247.06
2022-11-30T09:31:43.480Z,98238.66
2022-11-30T09:34:12.108Z,98228.47
2022-11-30T09:36:39.148Z,98242.25
2022-11-30T09:39:08.853Z,98242.41
2022-11-30T09:41:55.094Z,98234.53
2022-11-30T09:44:51.741Z,98238.66
2022-11-30T09:47:57.397Z,98235.16
2022-11-30T09:50:30.141Z,98243.66
2022-11-30T09:53:03.780Z,98234.09
2022-11-30T09:55:40.823Z,98239.84
2022-11-30T09:58:16.602Z,98229.41
2022-11-30T10:00:43.412Z,98230.34
2022-11-30T10:03:13.211Z,98231.25
2022-11-30T10:06:10.459Z,98231.28
2022-11-30T10:09:01.320Z,98229.69
2022-11-30T10:11:53.519Z,98232.28
2022-11-30T10:14:40.969Z,98235.75
2022-11-30T10:17:29.587Z,98228.03
2022-11-30T10:20:15.128Z,98242.75
2022-11-30T10:23:44.458Z,98250.72
2022-11-30T10:26:29.472Z,98235.66
2022-11-30T10:29:12.183Z,98246.06
2022-11-30T10:31:42.036Z,98234.75
2022-11-30T10:34:32.350Z,98234.84
2022-11-30T10:37:25.105Z,98236.78
2022-11-30T10:40:05.308Z,98246.13
2022-11-30T10:42:51.023Z,98234.06
2022-11-30T10:45:24.461Z,98235.75
2022-11-30T10:48:12.270Z,98235.81
2022-11-30T10:50:40.512Z,98229.75
2022-11-30T10:53:11.194Z,98231.50
2022-11-30T10:56:10.245Z,98218.63
2022-11-30T10:58:44.557Z,98226.47
2022-11-30T11:01:40.325Z,98226.41
2022-11-30T11:04:17.037Z,98229.03
2022-11-30T11:06:59.379Z,98219.63
2022-11-30T11:09:51.288Z,98216.03
2022-11-30T11:12:27.556Z,98217.69
2022-11-30T11:15:39.506Z,98217.63
2022-11-30T11:18:22.887Z,98219.38
2022-11-30T11:21:11.656Z,98208.06
2022-11-30T11:23:42.169Z,98213.06
2022-11-30T11:26:23.692Z,98215.56
2022-11-30T11:28:53.789Z,98218.22
2022-11-30T11:31:37.482Z,98203.75
2022-11-30T11:34:22.418Z,98213.16
2022-11-30T11:37:18.636Z,98214.97
2022-11-30T11:40:15.976Z,98215.03
2022-11-30T11:42:51.337Z,98218.63
2022-11-30T11:45:29.219Z,98217.69
2022-11-30T11:48:29.200Z,98209.13
2022-11-30T11:51:09.851Z,98211.78
2022-11-30T11:53:58.938Z,98211.91
2022-11-30T11:56:32.097Z,98206.72
2022-11-30T11:59:32.156Z,98208.38
2022-11-30T12:02:06.378Z,98214.44
2022-11-30T12:04:40.817Z,98223.13
2022-11-30T12:07:25.509Z,98225.72
2022-11-30T12:13:26.254Z,98222.38
2022-11-30T12:16:23.987Z,98222.38
2022-11-30T12:19:12.735Z,98216.38
2022-11-30T12:22:12.807Z,98232.69
2022-11-30T12:25:12.821Z,98223.06
2022-11-30T12:28:05.733Z,98218.88
2022-11-30T12:30:53.371Z,98230.84
2022-11-30T12:33:48.217Z,98226.69
2022-11-30T12:36:42.442Z,98226.84
2022-11-30T12:39:39.149Z,98226.84
2022-11-30T12:42:56.619Z,98227.69
2022-11-30T12:45:39.763Z,98231.91
2022-11-30T12:48:41.837Z,98230.19
2022-11-30T12:51:29.972Z,98236.16
2022-11-30T12:54:24.415Z,98231.00
2022-11-30T12:57:44.720Z,98233.50
2022-11-30T13:00:21.558Z,98238.50
2022-11-30T13:03:18.885Z,98233.50
2022-11-30T13:05:54.523Z,98238.75
2022-11-30T13:20:50.364Z,98222.38
2022-11-30T13:23:22.853Z,98212.06
2022-11-30T13:26:10.087Z,98215.28
2022-11-30T13:28:43.045Z,98221.94
2022-11-30T13:31:28.419Z,98229.69
2022-11-30T13:33:55.201Z,98234.16
2022-11-30T13:36:32.977Z,98224.78
2022-11-30T13:39:14.455Z,98229.25
2022-11-30T13:41:43.667Z,98223.28
2022-11-30T13:44:37.283Z,98228.34
2022-11-30T13:47:31.125Z,98219.03
2022-11-30T13:50:05.536Z,98216.69
2022-11-30T13:52:57.469Z,98221.19
2022-11-30T13:55:50.249Z,98227.94
2022-11-30T13:58:19.821Z,98215.28
2022-11-30T14:01:22.198Z,98223.78
2022-11-30T14:04:30.899Z,98220.22
2022-11-30T14:07:01.779Z,98218.44
2022-11-30T14:09:40.098Z,98228.75
2022-11-30T14:12:31.585Z,98215.69
2022-11-30T14:15:00.542Z,98225.03
2022-11-30T14:17:35.337Z,98225.78
2022-11-30T14:20:18.955Z,98228.34
2022-11-30T14:22:46.586Z,98227.69
2022-11-30T14:25:20.459Z,98221.84
2022-11-30T14:27:55.260Z,98223.78
2022-11-30T14:30:24.122Z,98224.75
2022-11-30T14:33:21.142Z,98223.94
2022-11-30T14:35:56.451Z,98222.59
2022-11-30T14:38:30.839Z,98230.34
2022-11-30T14:40:58.420Z,98219.34
2022-11-30T14:43:26.095Z,98222.91
2022-11-30T14:46:07.208Z,98227.16
2022-11-30T14:48:35.855Z,98230.47
2022-11-30T14:51:03.969Z,98231.53
2022-11-30T14:54:06.661Z,98243.66
2022-11-30T14:56:46.996Z,98239.69
2022-11-30T14:59:32.567Z,98233.06
2022-11-30T15:02:03.685Z,98241.81
2022-11-30T15:04:31.755Z,98250.53
2022-11-30T15:07:00.135Z,98240.53
2022-11-30T15:09:32.418Z,98246.56
2022-11-30T15:11:59.879Z,98238.84
2022-11-30T15:14:26.686Z,98247.47
2022-11-30T15:16:57.003Z,98239.09
2022-11-30T15:19:29.028Z,98245.22
2022-11-30T15:21:58.647Z,98242.66
2022-11-30T15:24:29.347Z,98239.41
2022-11-30T15:27:08.767Z,98245.56
2022-11-30T15:29:58.302Z,98252.59
2022-11-30T15:32:26.027Z,98253.56
2022-11-30T15:35:00.712Z,98251.97
2022-11-30T15:37:41.131Z,98250.47
2022-11-30T15:40:10.724Z,98259.09
2022-11-30T15:42:41.467Z,98267.78
2022-11-30T15:45:26.016Z,98255.91
2022-11-30T15:47:55.886Z,98260.28
2022-11-30T15:50:28.729Z,98257.72
2022-11-30T15:53:04.149Z,98263.81
2022-11-30T15:55:49.844Z,98266.38
2022-11-30T15:58:45.240Z,98262.97
2022-11-30T16:01:24.134Z,98278.28
2022-11-30T16:04:05.119Z,98280.88
2022-11-30T16:06:37.137Z,98285.13
2022-11-30T16:09:32.243Z,98280.81
2022-11-30T16:12:01.733Z,98279.97
2022-11-30T16:14:28.876Z,98279.97
2022-11-30T16:16:55.881Z,98279.19
2022-11-30T16:19:22.964Z,98278.28
2022-11-30T16:21:50.343Z,98274.09
2022-11-30T16:24:17.471Z,98277.53
2022-11-30T16:26:52.462Z,98282.84
2022-11-30T16:29:20.184Z,98288.00
2022-11-30T16:31:47.083Z,98281.19
2022-11-30T16:34:13.950Z,98284.72
2022-11-30T16:36:40.880Z,98289.09
2022-11-30T16:39:12.035Z,98283.19
2022-11-30T16:41:38.961Z,98288.50
2022-11-30T16:44:14.050Z,98294.50
2022-11-30T16:46:40.818Z,98296.28
2022-11-30T16:49:07.546Z,98299.91
2022-11-30T16:51:35.984Z,98297.41
2022-11-30T16:54:03.792Z,98305.06
2022-11-30T16:56:30.752Z,98294.75
2022-11-30T16:58:57.500Z,98302.34
2022-11-30T17:01:35.892Z,98295.53
2022-11-30T17:04:20.270Z,98302.41
2022-11-30T17:06:50.623Z,98300.69
2022-11-30T17:09:19.548Z,98297.28
2022-11-30T17:11:52.365Z,98299.69
2022-11-30T17:14:21.049Z,98287.69
2022-11-30T17:16:48.111Z,98301.31
2022-11-30T17:19:14.953Z,98297.13
2022-11-30T17:21:44.544Z,98297.13
2022-11-30T17:24:11.930Z,98308.25
2022-11-30T17:26:38.889Z,98306.66
2022-11-30T17:29:06.548Z,98307.50
2022-11-30T17:31:40.790Z,98311.88
2022-11-30T17:36:56.102Z,98311.78
2022-11-30T17:39:27.919Z,98321.13
2022-11-30T17:41:55.724Z,98318.53
2022-11-30T17:44:22.482Z,98314.16
2022-11-30T17:46:49.319Z,98320.28
2022-11-30T17:49:16.489Z,98320.28
2022-11-30T17:51:47.207Z,98325.50
2022-11-30T17:54:18.403Z,98329.81
2022-11-30T17:56:48.859Z,98332.44
2022-11-30T17:59:19.409Z,98323.91
2022-11-30T18:01:46.337Z,98328.06
2022-11-30T18:04:13.655Z,98325.50
2022-11-30T18:06:40.448Z,98326.34
2022-11-30T18:09:07.369Z,98323.97
2022-11-30T18:11:34.604Z,98327.50
2022-11-30T18:14:03.821Z,98330.91
2022-11-30T18:16:36.281Z,98326.69
2022-11-30T18:19:12.244Z,98340.47
2022-11-30T18:21:41.671Z,98351.59
2022-11-30T18:24:10.212Z,98352.41
2022-11-30T18:26:38.799Z,98343.94
2022-11-30T18:29:06.579Z,98348.25
2022-11-30T18:31:33.967Z,98353.59
2022-11-30T18:34:05.396Z,98351.91
2022-11-30T18:36:34.424Z,98348.44
2022-11-30T18:39:01.277Z,98343.22
2022-11-30T18:41:30.119Z,98353.38
2022-11-30T18:43:58.087Z,98351.72
2022-11-30T18:46:25.794Z,98348.25
2022-11-30T18:48:54.423Z,98350.88
2022-11-30T18:51:25.173Z,98354.41
2022-11-30T18:54:07.898Z,98355.31
2022-11-30T18:56:37.943Z,98358.78
2022-11-30T18:59:13.006Z,98353.59
2022-11-30T19:01:40.335Z,98359.56
2022-11-30T19:04:10.301Z,98355.31
2022-11-30T19:06:39.075Z,98356.31
2022-11-30T19:09:09.867Z,98353.75
2022-11-30T19:11:38.762Z,98355.47
2022-11-30T19:14:06.804Z,98354.63
2022-11-30T19:16:35.314Z,98355.31
2022-11-30T19:19:32.712Z,98363.03
2022-11-30T19:21:58.416Z,98357.81
2022-11-30T19:24:25.671Z,98356.09
2022-11-30T19:26:52.661Z,98354.34
2022-11-30T19:29:19.987Z,98373.13
2022-11-30T19:34:27.524Z,98354.22
2022-11-30T19:36:54.526Z,98354.09
2022-11-30T19:39:21.560Z,98356.63
2022-11-30T19:41:48.282Z,98354.81
2022-11-30T19:44:15.632Z,98349.75
2022-11-30T19:46:42.645Z,98348.00
2022-11-30T19:49:10.431Z,98332.56
2022-11-30T19:51:37.237Z,98353.16
2022-11-30T19:54:04.195Z,98352.19
2022-11-30T19:56:34.486Z,98339.41
2022-11-30T19:59:05.568Z,98349.63
2022-11-30T20:01:34.983Z,98356.50
2022-11-30T20:04:02.695Z,98359.06
2022-11-30T20:06:37.014Z,98363.44
2022-11-30T20:09:09.594Z,98361.78
2022-11-30T20:11:37.109Z,98360.06
2022-11-30T20:14:04.599Z,98360.19
2022-11-30T20:16:31.579Z,98358.66
2022-11-30T20:19:02.971Z,98360.31
2022-11-30T20:21:33.340Z,98351.00
2022-11-30T20:24:06.037Z,98356.09
2022-11-30T20:26:39.766Z,98354.41
2022-11-30T20:29:12.680Z,98353.59
2022-11-30T20:31:40.924Z,98345.03
2022-11-30T20:34:12.526Z,98351.78
2022-11-30T20:36:43.653Z,98350.03
2022-11-30T20:39:14.007Z,98359.56
2022-11-30T20:41:48.981Z,98357.81
2022-11-30T20:44:15.983Z,98360.53
2022-11-30T20:46:42.939Z,98357.00
2022-11-30T20:49:18.648Z,98354.47
2022-11-30T20:51:48.804Z,98350.31
2022-11-30T20:56:58.916Z,98354.72
2022-11-30T20:59:29.514Z,98347.75
2022-11-30T21:01:56.955Z,98350.31
2022-11-30T21:04:26.897Z,98350.31
2022-11-30T21:06:54.540Z,98346.94
2022-11-30T21:09:21.325Z,98350.31
2022-11-30T21:11:49.246Z,98354.66
2022-11-30T21:14:17.679Z,98347.84
2022-11-30T21:16:47.459Z,98349.63
2022-11-30T21:19:15.384Z,98353.94
2022-11-30T21:21:42.348Z,98348.78
2022-11-30T21:24:11.559Z,98363.31
2022-11-30T21:26:43.198Z,98364.03
2022-11-30T21:29:16.533Z,98353.75
2022-11-30T21:31:44.864Z,98357.22
2022-11-30T21:34:12.181Z,98359.03
2022-11-30T21:36:39.117Z,98355.63
2022-11-30T21:39:07.478Z,98353.88
2022-11-30T21:41:37.965Z,98361.47
2022-11-30T21:44:06.811Z,98347.75
2022-11-30T21:46:34.450Z,98358.13
2022-11-30T21:49:01.733Z,98363.19
2022-11-30T21:51:31.768Z,98360.53
2022-11-30T21:54:05.576Z,98359.63
2022-11-30T21:56:38.879Z,98359.63
2022-11-30T22:01:49.822Z,98358.84
2022-11-30T22:04:16.856Z,98357.13
2022-11-30T22:06:44.123Z,98359.75
2022-11-30T22:09:16.754Z,98364.75
2022-11-30T22:11:46.174Z,98367.41
2022-11-30T22:14:16.550Z,98355.44
2022-11-30T22:16:47.509Z,98362.25
2022-11-30T22:19:19.352Z,98363.94
2022-11-30T22:21:50.613Z,98360.47
2022-11-30T22:24:21.439Z,98355.31
2022-11-30T22:26:52.892Z,98345.03
2022-11-30T22:29:22.917Z,98355.31
2022-11-30T22:31:53.040Z,98352.75
2022-11-30T22:34:21.240Z,98346.84
2022-11-30T22:36:48.598Z,98338.22
2022-11-30T22:39:21.257Z,98342.47
2022-11-30T22:41:55.049Z,98345.09
2022-11-30T22:44:24.036Z,98351.97
2022-11-30T22:46:50.967Z,98343.47
2022-11-30T22:49:21.472Z,98341.78
2022-11-30T22:51:49.947Z,98347.75
2022-11-30T22:54:17.210Z,98345.19
2022-11-30T22:56:46.112Z,98344.44
2022-11-30T22:59:14.096Z,98338.44
2022-11-30T23:01:49.384Z,98341.91
2022-11-30T23:04:19.894Z,98326.50
2022-11-30T23:06:48.768Z,98334.13
2022-11-30T23:09:22.763Z,98324.69
2022-11-30T23:11:50.925Z,98333.16
2022-11-30T23:14:18.870Z,98325.53
2022-11-30T23:16:46.432Z,98325.47
2022-11-30T23:19:14.343Z,98328.00
2022-11-30T23:21:44.792Z,98311.66
2022-11-30T23:24:17.887Z,98309.03
2022-11-30T23:26:44.811Z,98309.81
2022-11-30T23:29:14.293Z,98308.91
2022-11-30T23:31:42.953Z,98314.94
2022-11-30T23:34:14.203Z,98303.19
2022-11-30T23:36:51.007Z,98304.13
2022-11-30T23:39:19.627Z,98311.97
2022-11-30T23:41:46.932Z,98318.91
2022-11-30T23:44:14.150Z,98313.69
2022-11-30T23:46:41.067Z,98304.38
2022-11-30T23:49:08.183Z,98306.94
2022-11-30T23:51:35.487Z,98308.69
2022-11-30T23:54:02.333Z,98306.06
2022-11-30T23:56:29.155Z,98293.19
2022-11-30T23:58:55.952Z,98302.56
